createdAt,value
2019-03-27T00:00:23.416Z,18.1
2019-03-27T00:01:13.319Z,18.1
2019-03-27T00:02:03.569Z,18.1
2019-03-27T00:02:53.951Z,18
2019-03-27T00:03:44.229Z,17.9
2019-03-27T00:04:34.226Z,17.9
2019-03-27T00:05:23.816Z,17.9
2019-03-27T00:06:13.346Z,17.9
2019-03-27T00:07:04.448Z,17.8
2019-03-27T00:07:53.394Z,17.8
2019-03-27T00:08:44.089Z,17.8
2019-03-27T00:09:33.918Z,17.8
2019-03-27T00:10:24.705Z,17.8
2019-03-27T00:11:18.083Z,17.9
2019-03-27T00:12:04.874Z,18
2019-03-27T00:12:55.247Z,18
2019-03-27T00:13:45.610Z,18.1
2019-03-27T00:14:34.264Z,18.1
2019-03-27T00:15:25.031Z,18.2
2019-03-27T00:16:14.533Z,18.3
2019-03-27T00:17:04.921Z,18.4
2019-03-27T00:17:55.254Z,18.4
2019-03-27T00:18:45.815Z,18.5
2019-03-27T00:19:35.467Z,18.6
2019-03-27T00:21:15.070Z,18.8
2019-03-27T00:22:05.878Z,18.8
2019-03-27T00:22:55.692Z,18.9
2019-03-27T00:23:46.213Z,18.9
2019-03-27T00:24:36.082Z,18.8
2019-03-27T00:26:15.285Z,18.6
2019-03-27T00:27:06.448Z,18.6
2019-03-27T00:29:36.502Z,18.8
2019-03-27T00:30:26.457Z,18.8
2019-03-27T00:31:19.420Z,18.8
2019-03-27T00:32:06.085Z,18.8
2019-03-27T00:32:56.847Z,18.9
2019-03-27T00:33:46.626Z,18.8
2019-03-27T00:34:36.422Z,18.8
2019-03-27T00:35:25.944Z,18.8
2019-03-27T00:37:56.384Z,18.6
2019-03-27T00:38:47.277Z,18.6
2019-03-27T00:39:35.974Z,18.5
2019-03-27T00:40:26.279Z,18.4
2019-03-27T00:41:17.298Z,18.4
2019-03-27T00:42:06.480Z,18.4
2019-03-27T00:42:57.072Z,18.4
2019-03-27T00:43:46.339Z,18.4
2019-03-27T00:44:36.876Z,18.3
2019-03-27T00:45:36.686Z,18.3
2019-03-27T00:46:16.984Z,18.3
2019-03-27T00:47:07.051Z,18.3
2019-03-27T00:47:58.001Z,18.3
2019-03-27T00:48:47.460Z,18.1
2019-03-27T00:49:37.302Z,18.1
2019-03-27T00:50:27.278Z,18.1
2019-03-27T00:51:18.321Z,18.1
2019-03-27T00:52:08.308Z,18
2019-03-27T00:52:57.641Z,17.9
2019-03-27T00:53:47.816Z,17.9
2019-03-27T00:54:37.038Z,17.9
2019-03-27T00:55:27.460Z,17.9
2019-03-27T00:56:17.813Z,17.8
2019-03-27T00:57:08.713Z,17.8
2019-03-27T00:57:58.180Z,17.8
2019-03-27T00:58:47.971Z,17.8
2019-03-27T00:59:38.155Z,17.8
2019-03-27T01:00:28.448Z,17.8
2019-03-27T01:01:18.398Z,17.8
2019-03-27T01:02:08.183Z,17.8
2019-03-27T01:02:58.490Z,17.9
2019-03-27T01:03:48.315Z,17.9
2019-03-27T01:04:38.125Z,17.9
2019-03-27T01:05:28.505Z,18
2019-03-27T01:06:18.773Z,18.1
2019-03-27T01:07:09.425Z,18.1
2019-03-27T01:07:58.045Z,18.3
2019-03-27T01:08:49.542Z,18.3
2019-03-27T01:09:38.722Z,18.4
2019-03-27T01:10:29.367Z,18.4
2019-03-27T01:11:19.650Z,18.6
2019-03-27T01:12:08.632Z,18.6
2019-03-27T01:13:49.327Z,18.8
2019-03-27T01:14:39.657Z,18.9
2019-03-27T01:15:43.828Z,18.8
2019-03-27T01:19:39.746Z,18.8
2019-03-27T01:20:29.504Z,18.8
2019-03-27T01:21:19.841Z,18.8
2019-03-27T01:22:09.629Z,18.8
2019-03-27T01:22:59.928Z,18.8
2019-03-27T01:23:50.092Z,18.8
2019-03-27T01:24:39.770Z,18.8
2019-03-27T01:25:30.139Z,18.8
2019-03-27T01:26:20.721Z,18.8
2019-03-27T01:28:50.644Z,18.6
2019-03-27T01:29:40.740Z,18.6
2019-03-27T01:30:30.524Z,18.6
2019-03-27T01:31:20.513Z,18.6
2019-03-27T01:32:10.639Z,18.5
2019-03-27T01:33:01.209Z,18.5
2019-03-27T01:33:50.140Z,18.4
2019-03-27T01:34:41.168Z,18.4
2019-03-27T01:35:31.416Z,18.3
2019-03-27T01:36:20.696Z,18.3
2019-03-27T01:37:11.208Z,18.2
2019-03-27T01:38:00.451Z,18.2
2019-03-27T01:38:49.953Z,18.1
2019-03-27T01:39:41.170Z,18.1
2019-03-27T01:40:31.040Z,18.1
2019-03-27T01:41:21.121Z,18.1
2019-03-27T01:42:11.592Z,18.1
2019-03-27T01:43:01.643Z,18
2019-03-27T01:43:50.715Z,18
2019-03-27T01:44:42.031Z,17.9
2019-03-27T01:45:31.045Z,17.9
2019-03-27T01:46:21.153Z,17.9
2019-03-27T01:47:11.455Z,17.8
2019-03-27T01:48:02.015Z,17.8
2019-03-27T01:48:51.480Z,17.7
2019-03-27T01:49:41.862Z,17.7
2019-03-27T01:50:31.108Z,17.7
2019-03-27T01:51:22.025Z,17.8
2019-03-27T01:52:15.727Z,17.8
2019-03-27T01:53:01.579Z,17.8
2019-03-27T01:53:52.436Z,17.8
2019-03-27T01:54:42.787Z,17.9
2019-03-27T01:55:32.311Z,17.9
2019-03-27T01:56:22.144Z,17.9
2019-03-27T01:57:11.902Z,18
2019-03-27T01:58:02.169Z,18.1
2019-03-27T01:58:52.789Z,18.1
2019-03-27T01:59:42.915Z,18.2
2019-03-27T02:00:32.357Z,18.3
2019-03-27T02:01:22.449Z,18.4
2019-03-27T02:02:13.090Z,18.4
2019-03-27T02:03:02.605Z,18.5
2019-03-27T02:03:53.200Z,18.6
2019-03-27T02:04:43.269Z,18.6
2019-03-27T02:05:33.016Z,18.6
2019-03-27T02:06:23.036Z,18.5
2019-03-27T02:07:13.435Z,18.4
2019-03-27T02:08:03.813Z,18.4
2019-03-27T02:08:53.589Z,18.4
2019-03-27T02:09:42.477Z,18.5
2019-03-27T02:10:33.436Z,18.5
2019-03-27T02:11:23.329Z,18.5
2019-03-27T02:12:13.481Z,18.6
2019-03-27T02:13:03.547Z,18.6
2019-03-27T02:13:53.973Z,18.6
2019-03-27T02:14:43.711Z,18.6
2019-03-27T02:15:33.199Z,18.6
2019-03-27T02:16:23.211Z,18.6
2019-03-27T02:17:14.417Z,18.5
2019-03-27T02:18:03.904Z,18.5
2019-03-27T02:18:53.781Z,18.4
2019-03-27T02:19:43.788Z,18.4
2019-03-27T02:20:33.791Z,18.4
2019-03-27T02:21:23.598Z,18.3
2019-03-27T02:22:14.256Z,18.3
2019-03-27T02:23:04.280Z,18.3
2019-03-27T02:23:54.893Z,18.3
2019-03-27T02:24:44.663Z,18.3
2019-03-27T02:25:34.170Z,18.3
2019-03-27T02:26:24.668Z,18.2
2019-03-27T02:27:14.954Z,18.2
2019-03-27T02:28:03.553Z,18.2
2019-03-27T02:28:54.208Z,18.1
2019-03-27T02:29:45.058Z,18.1
2019-03-27T02:30:35.143Z,18.1
2019-03-27T02:31:25.010Z,18.1
2019-03-27T02:32:15.495Z,18
2019-03-27T02:33:05.803Z,18
2019-03-27T02:33:55.071Z,17.9
2019-03-27T02:34:43.920Z,17.9
2019-03-27T02:35:34.991Z,17.9
2019-03-27T02:36:24.871Z,17.8
2019-03-27T02:37:15.465Z,17.8
2019-03-27T02:38:05.276Z,17.8
2019-03-27T02:38:55.736Z,17.8
2019-03-27T02:39:45.683Z,17.7
2019-03-27T02:40:36.326Z,17.7
2019-03-27T02:41:25.315Z,17.7
2019-03-27T02:42:14.562Z,17.7
2019-03-27T02:43:05.634Z,17.8
2019-03-27T02:43:55.993Z,17.8
2019-03-27T02:44:46.070Z,17.8
2019-03-27T02:45:36.297Z,17.8
2019-03-27T02:46:34.938Z,17.9
2019-03-27T02:47:16.193Z,17.9
2019-03-27T02:48:06.767Z,17.9
2019-03-27T02:48:55.520Z,18
2019-03-27T02:49:46.884Z,18.1
2019-03-27T02:50:36.559Z,18.2
2019-03-27T02:51:26.455Z,18.3
2019-03-27T02:52:16.609Z,18.3
2019-03-27T02:53:07.246Z,18.4
2019-03-27T02:53:57.048Z,18.4
2019-03-27T02:54:46.419Z,18.5
2019-03-27T02:55:37.015Z,18.5
2019-03-27T02:56:27.472Z,18.4
2019-03-27T02:57:16.577Z,18.4
2019-03-27T02:58:06.455Z,18.3
2019-03-27T02:58:56.975Z,18.3
2019-03-27T02:59:47.021Z,18.4
2019-03-27T03:00:37.619Z,18.4
2019-03-27T03:01:26.727Z,18.5
2019-03-27T03:02:17.554Z,18.5
2019-03-27T03:03:06.236Z,18.5
2019-03-27T03:03:57.674Z,18.6
2019-03-27T03:07:27.838Z,18.4
2019-03-27T03:08:17.983Z,18.4
2019-03-27T03:09:08.066Z,18.4
2019-03-27T03:09:59.150Z,18.4
2019-03-27T03:10:53.017Z,18.4
2019-03-27T03:11:38.787Z,18.3
2019-03-27T03:12:28.876Z,18.3
2019-03-27T03:13:19.114Z,18.3
2019-03-27T03:14:08.638Z,18.3
2019-03-27T03:14:58.706Z,18.2
2019-03-27T03:15:48.739Z,18.1
2019-03-27T03:16:52.964Z,18.1
2019-03-27T03:17:29.291Z,18.1
2019-03-27T03:18:19.486Z,18.1
2019-03-27T03:19:09.070Z,18.1
2019-03-27T03:19:58.691Z,18
2019-03-27T03:20:49.061Z,17.9
2019-03-27T03:21:38.540Z,17.9
2019-03-27T03:22:28.746Z,17.9
2019-03-27T03:23:19.806Z,17.9
2019-03-27T03:24:09.576Z,17.8
2019-03-27T03:24:58.092Z,17.8
2019-03-27T03:25:49.241Z,17.8
2019-03-27T03:26:40.000Z,17.7
2019-03-27T03:27:29.922Z,17.7
2019-03-27T03:28:19.805Z,17.6
2019-03-27T03:29:09.465Z,17.6
2019-03-27T03:30:00.680Z,17.6
2019-03-27T03:30:50.683Z,17.6
2019-03-27T03:31:40.035Z,17.6
2019-03-27T03:32:30.511Z,17.6
2019-03-27T03:33:20.559Z,17.7
2019-03-27T03:34:11.295Z,17.8
2019-03-27T03:35:00.956Z,17.8
2019-03-27T03:35:50.462Z,17.9
2019-03-27T03:36:40.350Z,17.9
2019-03-27T03:37:30.592Z,17.9
2019-03-27T03:38:20.478Z,17.9
2019-03-27T03:39:10.676Z,18
2019-03-27T03:40:00.456Z,18.1
2019-03-27T03:40:50.817Z,18.1
2019-03-27T03:41:40.862Z,18.1
2019-03-27T03:42:30.429Z,18.1
2019-03-27T03:43:20.987Z,18.2
2019-03-27T03:44:10.512Z,18.2
2019-03-27T03:45:01.467Z,18.3
2019-03-27T03:45:50.599Z,18.3
2019-03-27T03:46:39.850Z,18.4
2019-03-27T03:47:31.552Z,18.4
2019-03-27T03:48:20.603Z,18.5
2019-03-27T03:49:10.854Z,18.6
2019-03-27T03:50:01.737Z,18.6
2019-03-27T03:51:41.282Z,18.8
2019-03-27T03:52:31.117Z,18.8
2019-03-27T03:53:21.700Z,18.8
2019-03-27T03:54:11.594Z,18.8
2019-03-27T03:55:02.606Z,18.6
2019-03-27T03:55:52.153Z,18.6
2019-03-27T03:56:41.415Z,18.5
2019-03-27T03:57:32.063Z,18.6
2019-03-27T03:58:22.298Z,18.6
2019-03-27T04:04:12.551Z,18.6
2019-03-27T04:05:02.623Z,18.6
2019-03-27T04:05:52.182Z,18.5
2019-03-27T04:06:42.726Z,18.5
2019-03-27T04:07:32.544Z,18.5
2019-03-27T04:08:22.891Z,18.4
2019-03-27T04:09:12.658Z,18.4
2019-03-27T04:10:03.581Z,18.4
2019-03-27T04:10:53.300Z,18.4
2019-03-27T04:11:42.814Z,18.4
2019-03-27T04:12:31.964Z,18.4
2019-03-27T04:13:23.047Z,18.4
2019-03-27T04:14:12.984Z,18.3
2019-03-27T04:15:03.145Z,18.2
2019-03-27T04:15:53.360Z,18.2
2019-03-27T04:16:42.943Z,18.1
2019-03-27T04:17:33.322Z,18.1
2019-03-27T04:18:23.563Z,18
2019-03-27T04:19:11.907Z,18
2019-03-27T04:20:03.437Z,17.9
2019-03-27T04:20:53.774Z,17.9
2019-03-27T04:21:43.899Z,17.9
2019-03-27T04:22:33.593Z,17.9
2019-03-27T04:23:23.669Z,17.8
2019-03-27T04:24:13.082Z,17.8
2019-03-27T04:25:03.982Z,17.8
2019-03-27T04:26:20.480Z,17.8
2019-03-27T04:26:43.665Z,17.8
2019-03-27T04:27:34.215Z,17.8
2019-03-27T04:28:24.062Z,17.8
2019-03-27T04:29:14.358Z,17.9
2019-03-27T04:30:04.077Z,17.9
2019-03-27T04:30:54.556Z,17.9
2019-03-27T04:31:44.469Z,18.1
2019-03-27T04:32:34.372Z,18.1
2019-03-27T04:33:24.318Z,18.1
2019-03-27T04:34:13.891Z,18.3
2019-03-27T04:35:04.000Z,18.3
2019-03-27T04:35:55.131Z,18.4
2019-03-27T04:36:44.593Z,18.4
2019-03-27T04:37:34.893Z,18.6
2019-03-27T04:38:24.951Z,18.6
2019-03-27T04:40:04.468Z,18.6
2019-03-27T04:40:54.591Z,18.6
2019-03-27T04:41:44.329Z,18.6
2019-03-27T04:42:34.457Z,18.5
2019-03-27T04:43:25.600Z,18.6
2019-03-27T04:44:15.695Z,18.6
2019-03-27T04:45:05.428Z,18.6
2019-03-27T04:45:54.969Z,18.6
2019-03-27T04:46:45.341Z,18.6
2019-03-27T04:47:42.557Z,18.6
2019-03-27T04:48:25.405Z,18.6
2019-03-27T04:49:18.015Z,18.6
2019-03-27T04:50:05.790Z,18.6
2019-03-27T04:50:55.983Z,18.6
2019-03-27T04:51:45.600Z,18.5
2019-03-27T04:52:35.302Z,18.5
2019-03-27T04:53:25.940Z,18.5
2019-03-27T04:54:15.428Z,18.4
2019-03-27T04:55:06.125Z,18.4
2019-03-27T04:55:55.810Z,18.4
2019-03-27T04:56:46.457Z,18.4
2019-03-27T04:57:36.270Z,18.3
2019-03-27T04:58:26.689Z,18.3
2019-03-27T04:59:15.885Z,18.3
2019-03-27T05:00:06.139Z,18.2
2019-03-27T05:00:56.617Z,18.2
2019-03-27T05:01:45.312Z,18.1
2019-03-27T05:02:36.420Z,18.1
2019-03-27T05:03:25.868Z,18.1
2019-03-27T05:04:17.060Z,18.1
2019-03-27T05:05:06.707Z,18
2019-03-27T05:05:55.857Z,17.9
2019-03-27T05:06:46.709Z,17.9
2019-03-27T05:07:36.681Z,17.9
2019-03-27T05:08:25.709Z,17.9
2019-03-27T05:09:17.450Z,17.9
2019-03-27T05:10:07.231Z,17.8
2019-03-27T05:10:56.189Z,17.8
2019-03-27T05:11:47.010Z,17.7
2019-03-27T05:12:40.789Z,17.6
2019-03-27T05:13:26.551Z,17.6
2019-03-27T05:14:17.143Z,17.6
2019-03-27T05:15:06.923Z,17.5
2019-03-27T05:15:57.626Z,17.5
2019-03-27T05:16:46.524Z,17.5
2019-03-27T05:17:51.394Z,17.5
2019-03-27T05:18:27.169Z,17.4
2019-03-27T05:19:17.291Z,17.4
2019-03-27T05:20:07.286Z,17.4
2019-03-27T05:20:56.011Z,17.4
2019-03-27T05:21:47.690Z,17.4
2019-03-27T05:22:37.046Z,17.4
2019-03-27T05:23:28.196Z,17.5
2019-03-27T05:24:18.143Z,17.5
2019-03-27T05:25:08.028Z,17.6
2019-03-27T05:25:58.000Z,17.7
2019-03-27T05:26:47.765Z,17.7
2019-03-27T05:27:41.788Z,17.8
2019-03-27T05:28:28.453Z,17.9
2019-03-27T05:29:18.241Z,17.9
2019-03-27T05:30:07.976Z,17.9
2019-03-27T05:30:58.951Z,18.1
2019-03-27T05:31:47.889Z,18.1
2019-03-27T05:32:38.745Z,18.2
2019-03-27T05:33:32.364Z,18.3
2019-03-27T05:34:18.875Z,18.3
2019-03-27T05:35:08.579Z,18.3
2019-03-27T05:35:58.795Z,18.3
2019-03-27T05:36:48.807Z,18.3
2019-03-27T05:37:39.420Z,18.3
2019-03-27T05:38:27.845Z,18.3
2019-03-27T05:39:22.582Z,18.3
2019-03-27T05:40:08.588Z,18.4
2019-03-27T05:40:59.102Z,18.4
2019-03-27T05:41:49.422Z,18.5
2019-03-27T05:42:39.549Z,18.5
2019-03-27T05:43:29.864Z,18.6
2019-03-27T05:44:19.399Z,18.5
2019-03-27T05:45:09.019Z,18.5
2019-03-27T05:45:58.892Z,18.5
2019-03-27T05:46:49.630Z,18.4
2019-03-27T05:47:39.057Z,18.4
2019-03-27T05:48:29.995Z,18.4
2019-03-27T05:49:19.984Z,18.4
2019-03-27T05:50:10.024Z,18.3
2019-03-27T05:50:59.827Z,18.3
2019-03-27T05:51:49.389Z,18.2
2019-03-27T05:52:39.942Z,18.2
2019-03-27T05:53:30.257Z,18.1
2019-03-27T05:54:19.761Z,18.1
2019-03-27T05:55:09.301Z,18
2019-03-27T05:55:59.692Z,18
2019-03-27T05:56:50.588Z,17.9
2019-03-27T05:57:40.832Z,17.9
2019-03-27T05:58:30.988Z,17.9
2019-03-27T05:59:20.986Z,17.9
2019-03-27T06:00:10.628Z,17.9
2019-03-27T06:01:00.551Z,17.8
2019-03-27T06:01:50.661Z,17.8
2019-03-27T06:02:40.116Z,17.8
2019-03-27T06:05:27.877Z,17.7
2019-03-27T06:06:18.236Z,17.6
2019-03-27T06:07:08.006Z,17.6
2019-03-27T06:07:58.638Z,17.6
2019-03-27T06:08:47.321Z,17.5
2019-03-27T06:09:38.293Z,17.5
2019-03-27T06:10:28.009Z,17.4
2019-03-27T06:11:17.813Z,17.4
2019-03-27T06:12:08.135Z,17.4
2019-03-27T06:12:59.060Z,17.4
2019-03-27T06:13:48.870Z,17.3
2019-03-27T06:14:38.027Z,17.3
2019-03-27T06:15:28.038Z,17.3
2019-03-27T06:16:48.349Z,17.3
2019-03-27T06:17:08.580Z,17.2
2019-03-27T06:18:13.608Z,17.2
2019-03-27T06:18:48.328Z,17.1
2019-03-27T06:19:39.188Z,17.1
2019-03-27T06:20:29.015Z,17.1
2019-03-27T06:21:18.742Z,17.1
2019-03-27T06:22:08.810Z,17.1
2019-03-27T06:22:58.355Z,17.1
2019-03-27T06:23:49.858Z,17.1
2019-03-27T06:24:38.990Z,17.2
2019-03-27T06:25:29.538Z,17.3
2019-03-27T06:26:17.677Z,17.4
2019-03-27T06:27:08.170Z,17.4
2019-03-27T06:27:58.899Z,17.6
2019-03-27T06:28:49.084Z,17.7
2019-03-27T06:29:39.614Z,17.8
2019-03-27T06:30:30.350Z,17.7
2019-03-27T06:31:19.330Z,17.7
2019-03-27T06:32:09.324Z,17.7
2019-03-27T06:32:59.845Z,17.8
2019-03-27T06:33:49.864Z,17.8
2019-03-27T06:34:54.674Z,17.8
2019-03-27T06:35:29.819Z,17.8
2019-03-27T06:36:19.904Z,17.8
2019-03-27T06:37:09.952Z,17.7
2019-03-27T06:38:00.517Z,17.8
2019-03-27T06:38:49.712Z,17.8
2019-03-27T06:39:40.612Z,17.8
2019-03-27T06:40:30.234Z,17.7
2019-03-27T06:41:20.584Z,17.7
2019-03-27T06:42:09.244Z,17.6
2019-03-27T06:43:00.697Z,17.6
2019-03-27T06:43:50.154Z,17.5
2019-03-27T06:44:39.942Z,17.5
2019-03-27T06:45:31.029Z,17.5
2019-03-27T06:46:19.501Z,17.4
2019-03-27T06:47:11.503Z,17.4
2019-03-27T06:48:00.523Z,17.4
2019-03-27T06:48:50.802Z,17.4
2019-03-27T06:49:41.208Z,17.3
2019-03-27T06:50:31.246Z,17.3
2019-03-27T06:51:21.418Z,17.3
2019-03-27T06:52:10.738Z,17.3
2019-03-27T06:53:01.295Z,17.3
2019-03-27T06:53:50.308Z,17.3
2019-03-27T06:54:41.465Z,17.3
2019-03-27T06:55:31.542Z,17.2
2019-03-27T06:56:20.563Z,17.2
2019-03-27T06:57:11.521Z,17.2
2019-03-27T06:58:02.234Z,17.1
2019-03-27T06:59:04.811Z,17.1
2019-03-27T06:59:41.490Z,17.1
2019-03-27T07:00:31.315Z,17.1
2019-03-27T07:01:22.458Z,17.1
2019-03-27T07:06:04.545Z,16.9
2019-03-27T07:07:06.310Z,16.8
2019-03-27T07:07:21.085Z,16.9
2019-03-27T07:08:10.375Z,16.9
2019-03-27T07:09:01.464Z,16.9
2019-03-27T07:09:51.790Z,16.9
2019-03-27T07:10:39.830Z,16.9
2019-03-27T07:12:30.950Z,16.9
2019-03-27T07:13:10.827Z,16.9
2019-03-27T07:16:30.414Z,17.1
2019-03-27T07:17:21.859Z,17.1
2019-03-27T07:18:11.867Z,17.1
2019-03-27T07:19:02.890Z,17.1
2019-03-27T07:20:07.087Z,17.2
2019-03-27T07:20:56.162Z,17.1
2019-03-27T07:21:32.395Z,17.1
2019-03-27T07:22:22.349Z,17.1
2019-03-27T07:23:12.600Z,17.1
2019-03-27T07:24:02.020Z,17.1
2019-03-27T07:24:51.844Z,17.1
2019-03-27T07:25:41.929Z,17.1
2019-03-27T07:26:31.909Z,17.1
2019-03-27T07:29:52.469Z,16.9
2019-03-27T07:30:42.504Z,16.9
2019-03-27T07:31:33.156Z,16.9
2019-03-27T07:32:22.648Z,16.9
2019-03-27T07:33:12.725Z,16.9
2019-03-27T07:34:17.380Z,16.8
2019-03-27T07:34:52.897Z,16.8
2019-03-27T07:35:42.876Z,16.8
2019-03-27T07:36:33.014Z,16.8
2019-03-27T07:37:22.736Z,16.7
2019-03-27T07:38:12.747Z,16.7
2019-03-27T07:39:18.063Z,16.6
2019-03-27T07:39:52.536Z,16.6
2019-03-27T07:40:43.784Z,16.6
2019-03-27T07:41:32.667Z,16.6
2019-03-27T07:42:23.621Z,16.6
2019-03-27T07:43:13.967Z,16.5
2019-03-27T07:44:02.904Z,16.5
2019-03-27T07:44:53.818Z,16.5
2019-03-27T07:45:43.561Z,16.4
2019-03-27T07:46:32.891Z,16.4
2019-03-27T07:47:22.918Z,16.4
2019-03-27T07:48:13.557Z,16.4
2019-03-27T07:49:04.029Z,16.4
2019-03-27T07:49:53.683Z,16.4
2019-03-27T07:50:43.874Z,16.4
2019-03-27T07:51:33.770Z,16.4
2019-03-27T07:52:23.892Z,16.5
2019-03-27T07:53:14.105Z,16.6
2019-03-27T07:54:03.713Z,16.6
2019-03-27T07:54:54.076Z,16.6
2019-03-27T07:55:44.387Z,16.7
2019-03-27T07:56:34.953Z,16.7
2019-03-27T07:57:24.712Z,16.8
2019-03-27T07:58:15.055Z,16.8
2019-03-27T07:59:07.693Z,16.8
2019-03-27T07:59:53.802Z,16.8
2019-03-27T08:00:45.324Z,16.9
2019-03-27T08:01:35.011Z,16.9
2019-03-27T08:02:25.118Z,16.9
2019-03-27T08:03:14.923Z,16.9
2019-03-27T08:04:04.718Z,16.9
2019-03-27T08:04:53.573Z,16.9
2019-03-27T08:05:45.003Z,16.9
2019-03-27T08:06:35.100Z,16.9
2019-03-27T08:07:36.831Z,16.9
2019-03-27T08:08:15.242Z,16.9
2019-03-27T08:09:05.005Z,16.9
2019-03-27T08:09:55.958Z,16.9
2019-03-27T08:10:44.541Z,16.9
2019-03-27T08:11:39.414Z,16.9
2019-03-27T08:12:25.818Z,16.9
2019-03-27T08:13:14.898Z,16.9
2019-03-27T08:14:05.123Z,16.8
2019-03-27T08:14:55.815Z,16.8
2019-03-27T08:15:49.423Z,16.8
2019-03-27T08:16:35.075Z,16.8
2019-03-27T08:17:25.105Z,16.8
2019-03-27T08:18:14.405Z,16.7
2019-03-27T08:19:17.222Z,16.7
2019-03-27T08:19:55.577Z,16.6
2019-03-27T08:20:45.944Z,16.6
2019-03-27T08:21:40.309Z,16.6
2019-03-27T08:22:25.660Z,16.6
2019-03-27T08:23:16.005Z,16.5
2019-03-27T08:24:06.940Z,16.5
2019-03-27T08:24:55.365Z,16.5
2019-03-27T08:25:46.237Z,16.6
2019-03-27T08:26:35.787Z,16.6
2019-03-27T08:27:26.929Z,16.6
2019-03-27T08:28:16.747Z,16.6
2019-03-27T08:29:06.822Z,16.6
2019-03-27T08:29:56.374Z,16.6
2019-03-27T08:30:46.919Z,16.6
2019-03-27T08:31:36.609Z,16.6
2019-03-27T08:32:27.577Z,16.7
2019-03-27T08:33:17.269Z,16.7
2019-03-27T08:34:07.380Z,16.8
2019-03-27T08:34:56.866Z,16.8
2019-03-27T08:35:46.894Z,16.8
2019-03-27T08:36:37.664Z,16.8
2019-03-27T08:37:27.077Z,16.8
2019-03-27T08:38:20.598Z,16.8
2019-03-27T08:39:07.431Z,16.9
2019-03-27T08:39:57.289Z,16.9
2019-03-27T08:40:47.636Z,16.9
2019-03-27T08:41:37.897Z,16.9
2019-03-27T08:42:27.414Z,16.9
2019-03-27T08:43:33.926Z,16.9
2019-03-27T08:44:07.609Z,16.9
2019-03-27T08:44:58.163Z,16.9
2019-03-27T08:45:48.469Z,16.8
2019-03-27T08:46:38.401Z,16.9
2019-03-27T08:47:28.056Z,16.8
2019-03-27T08:48:16.811Z,16.8
2019-03-27T08:49:23.649Z,16.8
2019-03-27T08:50:12.671Z,16.8
2019-03-27T08:50:48.619Z,16.7
2019-03-27T08:51:38.611Z,16.7
2019-03-27T08:52:27.192Z,16.6
2019-03-27T08:53:18.057Z,16.6
2019-03-27T08:54:08.334Z,16.6
2019-03-27T08:54:59.144Z,16.6
2019-03-27T08:55:49.186Z,16.6
2019-03-27T08:56:39.014Z,16.5
2019-03-27T08:57:28.512Z,16.5
2019-03-27T08:58:19.359Z,16.4
2019-03-27T08:59:08.364Z,16.4
2019-03-27T08:59:58.711Z,16.4
2019-03-27T09:00:48.532Z,16.3
2019-03-27T09:01:37.627Z,16.3
2019-03-27T09:02:28.701Z,16.3
2019-03-27T09:03:18.776Z,16.3
2019-03-27T09:04:08.766Z,16.3
2019-03-27T09:04:59.146Z,16.2
2019-03-27T09:05:48.608Z,16.2
2019-03-27T09:06:43.011Z,16.2
2019-03-27T09:07:28.764Z,16.2
2019-03-27T09:08:19.157Z,16.2
2019-03-27T09:09:23.811Z,16.3
2019-03-27T09:09:58.973Z,16.3
2019-03-27T09:10:49.318Z,16.4
2019-03-27T09:11:38.536Z,16.4
2019-03-27T09:12:29.671Z,16.4
2019-03-27T09:13:18.046Z,16.4
2019-03-27T09:14:10.281Z,16.5
2019-03-27T09:15:00.365Z,16.6
2019-03-27T09:15:49.922Z,16.6
2019-03-27T09:16:39.692Z,16.6
2019-03-27T09:17:29.979Z,16.7
2019-03-27T09:18:24.002Z,16.7
2019-03-27T09:19:10.883Z,16.7
2019-03-27T09:20:00.913Z,16.7
2019-03-27T09:20:50.513Z,16.7
2019-03-27T09:21:40.313Z,16.6
2019-03-27T09:22:30.393Z,16.6
2019-03-27T09:23:21.422Z,16.6
2019-03-27T09:24:11.015Z,16.6
2019-03-27T09:24:59.737Z,16.6
2019-03-27T09:25:50.537Z,16.6
2019-03-27T09:26:41.378Z,16.7
2019-03-27T09:27:45.823Z,16.7
2019-03-27T09:28:21.334Z,16.7
2019-03-27T09:29:14.408Z,16.7
2019-03-27T09:30:01.353Z,16.7
2019-03-27T09:30:51.875Z,16.6
2019-03-27T09:31:54.593Z,16.6
2019-03-27T09:32:46.272Z,16.6
2019-03-27T09:33:21.437Z,16.6
2019-03-27T09:34:11.164Z,16.6
2019-03-27T09:35:01.492Z,16.5
2019-03-27T09:35:52.968Z,16.5
2019-03-27T09:36:42.311Z,16.4
2019-03-27T09:37:32.258Z,16.4
2019-03-27T09:38:22.503Z,16.4
2019-03-27T09:39:12.223Z,16.4
2019-03-27T09:40:02.337Z,16.4
2019-03-27T09:40:51.327Z,16.4
2019-03-27T09:41:41.511Z,16.3
2019-03-27T09:42:31.852Z,16.3
2019-03-27T09:43:21.327Z,16.3
2019-03-27T09:44:12.262Z,16.3
2019-03-27T09:45:02.824Z,16.3
2019-03-27T09:45:52.289Z,16.3
2019-03-27T09:46:41.564Z,16.2
2019-03-27T09:47:35.537Z,16.2
2019-03-27T09:48:22.521Z,16.1
2019-03-27T09:49:13.038Z,16.1
2019-03-27T09:50:02.270Z,16.2
2019-03-27T09:50:52.616Z,16.2
2019-03-27T09:51:42.484Z,16.3
2019-03-27T09:52:33.077Z,16.3
2019-03-27T09:53:23.057Z,16.4
2019-03-27T09:54:12.896Z,16.4
2019-03-27T09:55:02.826Z,16.4
2019-03-27T09:55:52.153Z,16.6
2019-03-27T09:56:42.741Z,16.6
2019-03-27T09:57:33.036Z,16.6
2019-03-27T09:58:23.713Z,16.6
2019-03-27T09:59:15.376Z,16.7
2019-03-27T10:00:02.878Z,16.7
2019-03-27T10:00:54.351Z,16.8
2019-03-27T10:01:42.948Z,16.8
2019-03-27T10:02:33.741Z,16.8
2019-03-27T10:03:23.260Z,16.8
2019-03-27T10:04:13.285Z,16.8
2019-03-27T10:06:28.303Z,16.8
2019-03-27T10:07:32.097Z,16.8
2019-03-27T10:08:07.832Z,16.8
2019-03-27T10:08:57.675Z,16.8
2019-03-27T10:09:51.748Z,16.8
2019-03-27T10:10:38.380Z,16.8
2019-03-27T10:11:46.576Z,16.8
2019-03-27T10:12:17.843Z,16.7
2019-03-27T10:13:08.169Z,16.7
2019-03-27T10:13:57.667Z,16.7
2019-03-27T10:14:52.108Z,16.6
2019-03-27T10:15:37.839Z,16.6
2019-03-27T10:16:28.862Z,16.6
2019-03-27T10:17:18.062Z,16.6
2019-03-27T10:18:08.047Z,16.6
2019-03-27T10:18:59.214Z,16.6
2019-03-27T10:19:48.132Z,16.5
2019-03-27T10:20:39.302Z,16.5
2019-03-27T10:21:27.967Z,16.5
2019-03-27T10:22:18.150Z,16.4
2019-03-27T10:23:09.614Z,16.4
2019-03-27T10:23:58.979Z,16.4
2019-03-27T10:24:47.577Z,16.4
2019-03-27T10:25:38.589Z,16.4
2019-03-27T10:26:29.042Z,16.4
2019-03-27T10:27:18.790Z,16.3
2019-03-27T10:28:08.367Z,16.3
2019-03-27T10:28:59.602Z,16.3
2019-03-27T10:29:49.744Z,16.3
2019-03-27T10:30:38.367Z,16.3
2019-03-27T10:31:29.786Z,16.3
2019-03-27T10:32:19.631Z,16.3
2019-03-27T10:33:09.526Z,16.4
2019-03-27T10:34:00.115Z,16.4
2019-03-27T10:34:48.729Z,16.4
2019-03-27T10:35:38.581Z,16.5
2019-03-27T10:36:29.923Z,16.5
2019-03-27T10:37:19.692Z,16.6
2019-03-27T10:38:08.919Z,16.7
2019-03-27T10:38:58.739Z,16.8
2019-03-27T10:39:50.216Z,16.8
2019-03-27T10:40:38.998Z,16.8
2019-03-27T10:41:29.160Z,16.8
2019-03-27T10:42:20.065Z,16.9
2019-03-27T10:48:10.283Z,16.9
2019-03-27T10:49:02.648Z,16.9
2019-03-27T10:49:50.981Z,16.9
2019-03-27T10:50:40.778Z,16.9
2019-03-27T10:51:30.255Z,16.9
2019-03-27T10:52:20.712Z,16.9
2019-03-27T10:53:10.541Z,16.8
2019-03-27T10:54:00.127Z,16.8
2019-03-27T10:54:51.322Z,16.8
2019-03-27T10:55:43.610Z,16.8
2019-03-27T10:56:31.050Z,16.8
2019-03-27T10:57:22.017Z,16.7
2019-03-27T10:58:11.977Z,16.7
2019-03-27T10:59:02.023Z,16.6
2019-03-27T10:59:52.002Z,16.6
2019-03-27T11:00:41.118Z,16.6
2019-03-27T11:01:32.260Z,16.6
2019-03-27T11:02:22.347Z,16.6
2019-03-27T11:03:11.797Z,16.5
2019-03-27T11:04:02.530Z,16.5
2019-03-27T11:04:52.253Z,16.6
2019-03-27T11:05:42.505Z,16.6
2019-03-27T11:06:32.385Z,16.6
2019-03-27T11:07:22.487Z,16.7
2019-03-27T11:08:16.219Z,16.7
2019-03-27T11:09:02.573Z,16.8
2019-03-27T11:09:51.851Z,16.8
2019-03-27T11:10:41.827Z,16.9
2019-03-27T11:11:31.066Z,16.9
2019-03-27T11:12:22.234Z,16.9
2019-03-27T11:14:02.269Z,17.1
2019-03-27T11:14:52.071Z,17.1
2019-03-27T11:15:42.709Z,17.1
2019-03-27T11:16:32.266Z,17.2
2019-03-27T11:17:21.738Z,17.1
2019-03-27T11:18:12.859Z,17.1
2019-03-27T11:19:02.648Z,17.1
2019-03-27T11:19:52.982Z,17.1
2019-03-27T11:20:42.833Z,17.1
2019-03-27T11:21:33.678Z,17.1
2019-03-27T11:22:23.418Z,17.1
2019-03-27T11:23:13.492Z,17.1
2019-03-27T11:24:02.792Z,17.1
2019-03-27T11:24:53.705Z,17.1
2019-03-27T11:25:43.473Z,17.1
2019-03-27T11:29:03.511Z,16.9
2019-03-27T11:29:53.087Z,16.9
2019-03-27T11:30:43.323Z,16.9
2019-03-27T11:31:33.467Z,16.9
2019-03-27T11:32:22.957Z,16.9
2019-03-27T11:33:13.870Z,16.8
2019-03-27T11:34:03.248Z,16.8
2019-03-27T11:34:54.313Z,16.8
2019-03-27T11:35:43.660Z,16.8
2019-03-27T11:36:38.160Z,16.8
2019-03-27T11:37:23.215Z,16.7
2019-03-27T11:38:14.680Z,16.7
2019-03-27T11:39:03.542Z,16.6
2019-03-27T11:39:53.870Z,16.6
2019-03-27T11:40:44.439Z,16.6
2019-03-27T11:41:34.523Z,16.6
2019-03-27T11:42:23.956Z,16.6
2019-03-27T11:43:14.671Z,16.5
2019-03-27T11:44:05.337Z,16.5
2019-03-27T11:44:55.145Z,16.4
2019-03-27T11:45:44.035Z,16.4
2019-03-27T11:46:38.469Z,16.4
2019-03-27T11:47:25.053Z,16.4
2019-03-27T11:48:18.082Z,16.4